Cromer, United Kingdom
Current Conditions -  °F | °C
As of 10:20 AM on Monday 26 Jan 2015 (Local Time) from EGSH Reporting Station
Scattered Clouds Scattered Clouds  
Wind Chill: 42°   Ceiling: Unl
Heat Index: 48°   Visibility: 6mi
Dew Point: 43°   Wind: 16mph
Humidity: 82%   Direction: 300°WNW
Pressure: 30.12"   Gusts: NA
Location:  52.93°N, 1.3°E
Report Text: EGSH 261020Z 30014KT 270V340 9000 SCT046 09/06 Q1020 NOSIG
Loading
Personal Weather Stations






























Interactive Weather Map New forecast layout! Learn more

10-Day Weather Forecast

Advertisements
Track Severe Weather on mobile